Time;durP1;ratioP1;P1;durP2;ratioP2;P2;SDS_P1;SDS_P2;PMS_P1;PMS_P2;Temp;Humidity;BMP_temperature;BMP_pressure;BME280_temperature;BME280_humidity;BME280_pressure;Samples;Min_cycle;Max_cycle;Signal;HPM_P1;HPM_P2
2021/04/22 00:00:24;;;;;;;11.43;8.93;;;6.80;99.90;;;;;;5039617;28;20186;-78
2021/04/22 00:02:51;;;;;;;12.97;9.43;;;6.80;99.90;;;;;;5041564;28;20258;-78
2021/04/22 00:05:21;;;;;;;11.97;8.83;;;6.80;99.90;;;;;;5038969;28;20182;-78
2021/04/22 00:07:49;;;;;;;12.13;9.20;;;6.80;99.90;;;;;;5040775;28;20230;-78
2021/04/22 00:10:18;;;;;;;13.07;9.20;;;6.80;99.90;;;;;;5038977;28;20185;-78
2021/04/22 00:12:43;;;;;;;11.40;8.57;;;6.80;99.90;;;;;;5040319;28;20182;-78
2021/04/22 00:15:17;;;;;;;11.93;9.07;;;6.70;99.90;;;;;;5039862;28;20186;-78
2021/04/22 00:17:47;;;;;;;11.43;8.13;;;6.70;99.90;;;;;;5038454;28;20175;-79
2021/04/22 00:20:15;;;;;;;13.00;8.07;;;6.70;99.90;;;;;;5038670;28;20810;-78
2021/04/22 00:22:41;;;;;;;11.47;8.77;;;6.70;99.90;;;;;;5040007;28;20177;-78
2021/04/22 00:25:08;;;;;;;11.70;8.33;;;6.60;99.90;;;;;;5040083;28;20194;-78
2021/04/22 00:27:34;;;;;;;14.07;7.67;;;6.50;99.90;;;;;;5038434;28;20406;-78
2021/04/22 00:30:00;;;;;;;14.60;8.93;;;6.50;99.90;;;;;;5040380;28;20190;-78
2021/04/22 00:32:26;;;;;;;11.53;8.40;;;6.40;99.90;;;;;;5040338;28;20178;-78
2021/04/22 00:34:51;;;;;;;11.77;8.27;;;6.30;99.90;;;;;;5040355;28;20179;-78
2021/04/22 00:37:17;;;;;;;10.83;8.27;;;6.30;99.90;;;;;;5040027;28;20183;-78
2021/04/22 00:39:43;;;;;;;10.67;8.27;;;6.30;99.90;;;;;;5040132;28;20195;-78
2021/04/22 00:42:09;;;;;;;8.63;7.67;;;6.30;99.90;;;;;;5040339;28;20198;-78
2021/04/22 00:44:36;;;;;;;10.63;7.80;;;6.40;99.90;;;;;;5039674;28;20197;-78
2021/04/22 00:47:01;;;;;;;12.40;9.23;;;6.40;99.90;;;;;;5035983;28;20182;-78
2021/04/22 00:49:27;;;;;;;13.23;8.33;;;6.50;99.90;;;;;;5037330;28;20198;-78
2021/04/22 00:51:53;;;;;;;10.97;8.40;;;6.50;99.90;;;;;;5037875;28;20182;-78
2021/04/22 00:54:19;;;;;;;10.53;8.23;;;6.50;99.90;;;;;;5039141;28;20178;-78
2021/04/22 00:56:45;;;;;;;13.50;8.53;;;6.50;99.90;;;;;;5038501;28;20182;-78
2021/04/22 00:59:11;;;;;;;11.83;8.63;;;6.50;99.90;;;;;;5038036;28;20202;-78
2021/04/22 01:01:37;;;;;;;14.53;8.57;;;6.40;99.90;;;;;;5039464;28;20209;-79
2021/04/22 01:04:03;;;;;;;13.57;8.50;;;6.50;99.90;;;;;;5037770;28;20171;-78
2021/04/22 01:06:29;;;;;;;14.00;10.20;;;6.40;99.90;;;;;;5038571;28;20652;-79
2021/04/22 01:08:55;;;;;;;14.57;9.43;;;6.40;99.90;;;;;;5038007;28;20208;-78
2021/04/22 01:11:28;;;;;;;11.90;8.80;;;6.40;99.90;;;;;;5039519;28;20257;-78
2021/04/22 01:13:54;;;;;;;11.87;8.40;;;6.40;99.90;;;;;;5038882;28;20246;-78
2021/04/22 01:16:19;;;;;;;11.43;8.33;;;6.40;99.90;;;;;;5038462;28;20221;-78
2021/04/22 01:18:45;;;;;;;11.37;8.63;;;6.20;99.90;;;;;;5037097;28;20202;-78
2021/04/22 01:21:20;;;;;;;12.97;8.90;;;6.10;99.90;;;;;;5038725;28;20206;-78
2021/04/22 01:23:45;;;;;;;11.80;8.40;;;6.10;99.90;;;;;;5038323;28;20612;-78
2021/04/22 01:26:14;;;;;;;14.07;7.77;;;6.10;99.90;;;;;;5037432;28;20428;-78
2021/04/22 01:28:39;;;;;;;12.23;7.37;;;6.10;99.90;;;;;;5038914;28;20198;-78
2021/04/22 01:31:05;;;;;;;10.53;8.23;;;6.00;99.90;;;;;;5038867;28;20174;-78
2021/04/22 01:33:31;;;;;;;11.27;8.03;;;5.90;99.90;;;;;;5036844;28;20651;-78
2021/04/22 01:35:58;;;;;;;10.87;7.97;;;5.90;99.90;;;;;;5037984;28;20539;-79
2021/04/22 01:38:26;;;;;;;10.00;8.37;;;5.80;99.90;;;;;;5038929;28;20205;-78
2021/04/22 01:40:52;;;;;;;10.23;7.83;;;5.80;99.90;;;;;;5038252;28;20198;-78
2021/04/22 01:43:17;;;;;;;15.93;8.20;;;5.70;99.90;;;;;;5038568;28;20177;-78
2021/04/22 01:45:43;;;;;;;9.20;7.03;;;5.70;99.90;;;;;;5036794;28;20429;-79
2021/04/22 01:48:09;;;;;;;12.80;7.43;;;5.70;99.90;;;;;;5037664;28;20205;-78
2021/04/22 01:50:37;;;;;;;10.27;8.17;;;5.70;99.90;;;;;;5037457;28;20179;-78
2021/04/22 01:53:05;;;;;;;11.50;8.27;;;5.70;99.90;;;;;;5038231;28;20420;-78
2021/04/22 01:55:32;;;;;;;10.67;7.93;;;5.70;99.90;;;;;;5037831;28;20420;-78
2021/04/22 01:57:58;;;;;;;12.00;7.07;;;5.70;99.90;;;;;;5036422;28;20433;-78
2021/04/22 02:00:31;;;;;;;10.47;7.77;;;5.70;99.90;;;;;;5037100;28;20425;-78
2021/04/22 02:02:57;;;;;;;12.97;7.27;;;5.60;99.90;;;;;;5038523;28;20273;-78
2021/04/22 02:05:23;;;;;;;9.63;7.43;;;5.70;99.90;;;;;;5037828;28;20831;-78
2021/04/22 02:07:50;;;;;;;9.17;7.00;;;5.70;99.90;;;;;;5037878;28;20170;-78
2021/04/22 02:10:16;;;;;;;9.47;7.03;;;5.60;99.90;;;;;;5036814;28;20425;-78
2021/04/22 02:12:42;;;;;;;9.80;7.73;;;5.60;99.90;;;;;;5036593;28;20245;-78
2021/04/22 02:15:12;;;;;;;8.67;6.77;;;5.50;99.90;;;;;;5036232;28;20449;-78
2021/04/22 02:17:37;;;;;;;8.93;7.40;;;5.60;99.90;;;;;;5037755;28;20178;-78
2021/04/22 02:20:09;;;;;;;8.30;6.47;;;5.60;99.90;;;;;;5036659;28;20999;-78
2021/04/22 02:22:34;;;;;;;9.33;7.67;;;5.70;99.90;;;;;;5037042;28;20206;-78
2021/04/22 02:25:00;;;;;;;10.30;7.83;;;5.70;99.90;;;;;;5038245;28;20240;-78
2021/04/22 02:27:26;;;;;;;11.37;8.07;;;5.80;99.90;;;;;;5038700;28;20166;-78
2021/04/22 02:29:51;;;;;;;11.60;9.03;;;5.80;99.90;;;;;;5039294;28;20195;-78
2021/04/22 02:32:17;;;;;;;13.23;9.70;;;5.90;99.90;;;;;;5038431;28;20178;-78
2021/04/22 02:34:43;;;;;;;14.13;8.93;;;5.90;99.90;;;;;;5038873;28;20202;-78
2021/04/22 02:37:08;;;;;;;14.47;9.57;;;5.90;99.90;;;;;;5037139;28;20186;-78
2021/04/22 02:39:34;;;;;;;15.40;9.53;;;5.90;99.90;;;;;;5038974;28;20248;-78
2021/04/22 02:42:00;;;;;;;12.67;9.97;;;5.90;99.90;;;;;;5039269;28;20206;-78
2021/04/22 02:44:25;;;;;;;12.23;9.20;;;6.00;99.90;;;;;;5038079;28;20249;-78
2021/04/22 02:46:51;;;;;;;18.47;9.93;;;6.00;99.90;;;;;;5038473;28;20178;-78
2021/04/22 02:49:16;;;;;;;12.23;8.53;;;6.00;99.90;;;;;;5039870;28;20336;-78
2021/04/22 02:51:42;;;;;;;11.40;8.33;;;6.10;99.90;;;;;;5039410;28;20178;-78
2021/04/22 02:54:08;;;;;;;11.53;8.67;;;6.10;99.90;;;;;;5039573;28;20182;-78
2021/04/22 02:56:33;;;;;;;10.47;8.23;;;6.10;99.90;;;;;;5039555;28;20182;-78
2021/04/22 02:58:59;;;;;;;12.13;8.23;;;6.00;99.90;;;;;;5038898;28;20202;-78
2021/04/22 03:01:25;;;;;;;10.97;8.33;;;5.90;99.90;;;;;;5039323;28;20322;-78
2021/04/22 03:03:51;;;;;;;11.57;8.83;;;5.80;99.90;;;;;;5040069;28;20182;-78
2021/04/22 03:06:16;;;;;;;9.37;7.37;;;5.70;99.90;;;;;;5044610;28;20174;-78
2021/04/22 03:08:42;;;;;;;9.80;7.77;;;5.60;99.90;;;;;;5052522;28;20194;-78
2021/04/22 03:11:08;;;;;;;10.50;8.27;;;5.60;99.90;;;;;;5055071;28;20253;-78
2021/04/22 03:13:33;;;;;;;11.53;7.77;;;5.40;99.90;;;;;;5047451;28;20178;-78
2021/04/22 03:15:59;;;;;;;12.80;8.07;;;5.40;99.90;;;;;;5036493;28;20185;-79
2021/04/22 03:18:24;;;;;;;12.23;7.33;;;5.30;99.90;;;;;;5036612;28;20206;-79
2021/04/22 03:20:50;;;;;;;11.63;8.33;;;5.30;99.90;;;;;;5035983;28;20210;-78
2021/04/22 03:23:16;;;;;;;11.20;7.67;;;5.30;99.90;;;;;;5034872;28;20185;-78
2021/04/22 03:25:42;;;;;;;10.63;8.13;;;5.30;99.90;;;;;;5034581;28;20640;-78
2021/04/22 03:28:08;;;;;;;12.17;8.40;;;5.30;99.90;;;;;;5035216;28;20196;-78
2021/04/22 03:30:35;;;;;;;12.10;7.87;;;5.30;99.90;;;;;;5036093;28;20178;-78
2021/04/22 03:33:01;;;;;;;11.57;8.47;;;5.30;99.90;;;;;;5036407;28;20413;-78
2021/04/22 03:35:27;;;;;;;11.00;8.10;;;5.30;99.90;;;;;;5035361;28;20417;-78
2021/04/22 03:37:53;;;;;;;10.77;7.17;;;5.20;99.90;;;;;;5036394;28;20419;-79
2021/04/22 03:40:22;;;;;;;11.27;7.60;;;5.10;99.90;;;;;;5034672;28;20228;-79
2021/04/22 03:42:47;;;;;;;9.53;7.57;;;5.10;99.90;;;;;;5035050;28;20968;-79
2021/04/22 03:45:14;;;;;;;12.17;7.80;;;5.00;99.90;;;;;;5034969;28;20559;-78
2021/04/22 03:47:40;;;;;;;9.17;6.60;;;5.00;99.90;;;;;;5036136;28;20301;-79
2021/04/22 03:50:08;;;;;;;10.53;7.17;;;5.00;99.90;;;;;;5036136;28;20409;-78
2021/04/22 03:52:33;;;;;;;9.07;6.70;;;5.00;99.90;;;;;;5036149;28;20420;-78
2021/04/22 03:54:59;;;;;;;9.27;6.77;;;5.00;99.90;;;;;;5037227;28;20413;-78
2021/04/22 03:57:25;;;;;;;10.13;6.70;;;5.00;99.90;;;;;;5038039;28;20184;-78
2021/04/22 03:59:51;;;;;;;8.23;6.70;;;5.00;99.90;;;;;;5036406;28;20201;-79
2021/04/22 04:02:18;;;;;;;8.50;6.67;;;5.00;99.90;;;;;;5037773;28;20202;-78
2021/04/22 04:04:45;;;;;;;13.43;7.53;;;;;;;;;;5037854;28;20166;-79
2021/04/22 04:07:10;;;;;;;12.50;7.97;;;5.10;99.90;;;;;;5036247;28;20907;-79
2021/04/22 04:09:36;;;;;;;13.13;7.47;;;5.10;99.90;;;;;;5038934;28;20435;-79
2021/04/22 04:12:03;;;;;;;10.13;8.07;;;5.10;99.90;;;;;;5038120;28;20297;-78
2021/04/22 04:14:28;;;;;;;11.77;8.43;;;5.20;99.90;;;;;;5039574;28;20232;-78
2021/04/22 04:16:54;;;;;;;9.87;7.70;;;5.20;99.90;;;;;;5039670;28;20416;-79
2021/04/22 04:19:20;;;;;;;9.77;7.57;;;5.30;99.90;;;;;;5041919;28;20244;-79
2021/04/22 04:21:45;;;;;;;14.57;7.57;;;5.30;99.90;;;;;;5039610;28;20205;-78
2021/04/22 04:24:11;;;;;;;12.43;6.97;;;5.40;99.90;;;;;;5038814;28;20178;-78
2021/04/22 04:26:37;;;;;;;9.07;6.73;;;5.40;99.90;;;;;;5035335;28;20175;-78
2021/04/22 04:29:03;;;;;;;11.43;7.07;;;5.50;99.90;;;;;;5033943;28;20198;-78
2021/04/22 04:31:29;;;;;;;7.40;6.10;;;5.50;99.90;;;;;;5035619;28;20182;-78
2021/04/22 04:33:56;;;;;;;10.07;6.57;;;5.50;99.90;;;;;;5034174;28;20183;-78
2021/04/22 04:36:22;;;;;;;8.93;6.30;;;5.50;99.90;;;;;;5034196;28;20205;-78
2021/04/22 04:38:47;;;;;;;9.17;6.60;;;5.50;99.90;;;;;;5035839;28;20248;-78
2021/04/22 04:41:13;;;;;;;10.13;7.33;;;5.50;99.90;;;;;;5038406;28;20456;-78
2021/04/22 04:43:39;;;;;;;9.67;6.67;;;5.50;99.90;;;;;;5039682;28;20214;-78
2021/04/22 04:46:04;;;;;;;9.33;6.97;;;5.50;99.90;;;;;;5039894;28;20173;-78
2021/04/22 04:48:30;;;;;;;8.27;6.20;;;5.50;99.90;;;;;;5039769;28;20269;-78
2021/04/22 04:50:56;;;;;;;10.03;6.50;;;5.50;99.90;;;;;;5039041;28;20185;-78
2021/04/22 04:53:21;;;;;;;9.17;6.73;;;5.50;99.90;;;;;;5038169;28;20180;-78
2021/04/22 04:55:47;;;;;;;9.13;6.93;;;5.50;99.90;;;;;;5038977;28;20645;-78
2021/04/22 04:58:13;;;;;;;7.63;6.63;;;5.50;99.90;;;;;;5037381;28;20592;-78
2021/04/22 05:00:38;;;;;;;7.50;6.03;;;5.40;99.90;;;;;;5037895;28;20236;-78
2021/04/22 05:03:04;;;;;;;9.73;6.70;;;5.40;99.90;;;;;;5039161;28;20450;-78
2021/04/22 05:05:30;;;;;;;9.10;7.13;;;5.40;99.90;;;;;;5037192;28;20174;-78
2021/04/22 05:07:56;;;;;;;15.40;7.10;;;5.30;99.90;;;;;;5038972;28;20220;-78
2021/04/22 05:10:21;;;;;;;10.13;7.30;;;5.30;99.90;;;;;;5038379;28;20178;-78
2021/04/22 05:12:47;;;;;;;8.43;6.10;;;5.30;99.90;;;;;;5036913;28;20235;-78
2021/04/22 05:15:13;;;;;;;10.47;6.83;;;5.30;99.90;;;;;;5036046;28;20182;-78
2021/04/22 05:17:39;;;;;;;8.10;6.30;;;5.30;99.90;;;;;;5038505;28;20260;-77
2021/04/22 05:20:06;;;;;;;8.97;6.27;;;5.40;99.90;;;;;;5038758;28;20436;-77
2021/04/22 05:22:32;;;;;;;9.87;6.27;;;5.40;99.90;;;;;;5036657;28;20616;-78
2021/04/22 05:24:57;;;;;;;10.03;7.73;;;5.50;99.90;;;;;;5036483;28;20419;-78
2021/04/22 05:27:23;;;;;;;9.00;6.10;;;5.60;99.90;;;;;;5022210;28;20513;-78
2021/04/22 05:29:49;;;;;;;7.70;5.40;;;5.70;99.90;;;;;;5017781;28;20200;-78
2021/04/22 05:32:14;;;;;;;8.67;5.90;;;5.80;99.90;;;;;;5017451;28;20183;-78
2021/04/22 05:34:40;;;;;;;19.50;10.53;;;5.90;99.90;;;;;;5015409;28;20174;-78
2021/04/22 05:37:06;;;;;;;15.97;8.90;;;5.90;99.90;;;;;;5015803;28;20672;-77
2021/04/22 05:39:31;;;;;;;16.23;8.97;;;5.80;99.90;;;;;;5017085;28;20204;-77
2021/04/22 05:41:58;;;;;;;10.17;7.37;;;5.90;99.90;;;;;;5015881;28;20203;-78
2021/04/22 05:44:25;;;;;;;14.07;8.77;;;5.90;99.90;;;;;;5016430;28;20179;-78
2021/04/22 05:46:50;;;;;;;24.50;15.00;;;6.00;99.90;;;;;;5017762;28;20414;-77
2021/04/22 05:49:16;;;;;;;14.27;10.13;;;6.10;99.90;;;;;;5017019;28;20236;-77
2021/04/22 05:51:42;;;;;;;10.03;8.03;;;6.10;99.90;;;;;;5016759;28;20302;-78
2021/04/22 05:54:10;;;;;;;11.43;7.57;;;6.10;99.90;;;;;;5015455;28;20210;-77
2021/04/22 05:56:35;;;;;;;7.90;6.50;;;6.20;99.90;;;;;;5016725;28;20489;-77
2021/04/22 05:59:02;;;;;;;8.57;6.03;;;6.20;99.90;;;;;;5016377;28;20672;-77
2021/04/22 06:01:27;;;;;;;8.50;5.97;;;6.40;99.90;;;;;;5016429;28;20683;-77
2021/04/22 06:03:53;;;;;;;11.70;6.43;;;6.50;99.90;;;;;;5016044;28;20413;-77
2021/04/22 06:06:19;;;;;;;8.33;6.00;;;6.70;99.90;;;;;;5015531;28;20285;-77
2021/04/22 06:08:46;;;;;;;8.10;5.37;;;6.70;99.90;;;;;;5015772;28;20202;-78
2021/04/22 06:11:12;;;;;;;7.93;5.03;;;6.70;99.90;;;;;;5018241;28;20182;-77
2021/04/22 06:13:38;;;;;;;10.80;5.73;;;6.80;99.90;;;;;;5018414;28;20781;-77
2021/04/22 06:16:04;;;;;;;11.40;6.00;;;6.80;99.90;;;;;;5017917;28;20415;-77
2021/04/22 06:18:30;;;;;;;8.30;6.03;;;6.90;99.90;;;;;;5016029;28;20574;-77
2021/04/22 06:20:55;;;;;;;8.53;5.30;;;7.00;99.90;;;;;;5015908;28;20215;-77
2021/04/22 06:23:22;;;;;;;8.13;5.60;;;7.00;99.90;;;;;;5024268;28;20171;-77
2021/04/22 06:25:47;;;;;;;7.00;5.47;;;7.10;99.90;;;;;;5032468;28;20202;-77
2021/04/22 06:28:13;;;;;;;6.90;5.70;;;7.20;99.90;;;;;;5038453;28;20187;-78
2021/04/22 06:30:39;;;;;;;10.40;5.37;;;7.20;99.90;;;;;;5033764;28;20259;-77
2021/04/22 06:33:04;;;;;;;10.10;5.83;;;7.30;99.90;;;;;;5015526;28;20242;-77
2021/04/22 06:35:30;;;;;;;10.97;5.83;;;7.50;99.90;;;;;;5017473;28;20637;-77
2021/04/22 06:37:56;;;;;;;9.30;5.60;;;7.70;99.90;;;;;;5016586;28;20186;-78
2021/04/22 06:40:23;;;;;;;9.97;5.30;;;7.90;99.90;;;;;;5016419;28;20257;-77
2021/04/22 06:42:49;;;;;;;12.27;5.93;;;8.00;99.90;;;;;;5016355;28;20237;-78
2021/04/22 06:45:17;;;;;;;11.77;6.17;;;8.20;99.90;;;;;;5016427;28;20515;-78
2021/04/22 06:47:44;;;;;;;10.30;5.57;;;8.30;99.90;;;;;;5014928;28;20179;-78
2021/04/22 06:50:12;;;;;;;9.47;6.33;;;8.50;99.90;;;;;;5016557;28;20178;-78
2021/04/22 06:52:38;;;;;;;9.40;6.30;;;8.60;99.90;;;;;;5016217;28;20183;-78
2021/04/22 06:55:08;;;;;;;7.67;6.23;;;8.70;99.90;;;;;;5014830;28;20198;-77
2021/04/22 06:57:33;;;;;;;8.40;6.70;;;8.80;99.90;;;;;;5016383;28;20176;-78
2021/04/22 06:59:59;;;;;;;8.63;6.57;;;8.90;99.90;;;;;;5014864;28;20209;-78
2021/04/22 07:02:25;;;;;;;8.30;6.50;;;9.10;99.90;;;;;;5015610;28;20313;-78
2021/04/22 07:04:51;;;;;;;8.83;6.40;;;9.30;99.90;;;;;;5016118;28;20543;-78
2021/04/22 07:07:16;;;;;;;8.33;5.90;;;9.40;99.90;;;;;;5016875;28;20175;-78
2021/04/22 07:09:42;;;;;;;8.90;6.47;;;9.60;99.90;;;;;;5016111;28;20210;-78
2021/04/22 07:12:08;;;;;;;7.90;6.47;;;9.80;99.90;;;;;;5014742;28;20180;-78
2021/04/22 07:14:33;;;;;;;9.73;6.63;;;10.00;99.90;;;;;;5016467;28;20259;-78
2021/04/22 07:17:02;;;;;;;9.50;6.50;;;10.30;99.90;;;;;;5016196;28;20227;-78
2021/04/22 07:19:28;;;;;;;7.60;6.33;;;10.30;99.90;;;;;;5015754;28;20258;-78
2021/04/22 07:22:09;;;;;;;12.10;7.83;;;10.40;99.90;;;;;;5131870;27;20480;-78
2021/04/22 07:24:37;;;;;;;13.50;9.23;;;10.60;99.90;;;;;;5131759;28;20174;-77
2021/04/22 07:27:04;;;;;;;13.63;9.67;;;10.70;99.90;;;;;;5131835;28;20181;-77
2021/04/22 07:29:30;;;;;;;12.50;10.53;;;10.90;99.90;;;;;;5131802;28;20194;-77
2021/04/22 07:31:55;;;;;;;13.00;9.60;;;11.00;99.90;;;;;;5130553;28;20234;-77
2021/04/22 07:34:21;;;;;;;12.87;9.50;;;11.00;99.90;;;;;;5131933;27;20180;-78
2021/04/22 07:36:46;;;;;;;13.60;9.93;;;11.00;99.90;;;;;;5130979;28;20273;-78
2021/04/22 07:39:12;;;;;;;14.90;9.20;;;11.00;99.90;;;;;;5131866;27;20191;-77
2021/04/22 07:41:39;;;;;;;14.03;10.00;;;11.00;99.90;;;;;;5130435;28;20202;-77
2021/04/22 07:44:04;;;;;;;12.07;9.57;;;11.00;99.90;;;;;;5132026;27;20175;-77
2021/04/22 07:46:30;;;;;;;13.63;10.77;;;11.10;99.90;;;;;;5130512;28;20239;-78
2021/04/22 07:48:56;;;;;;;13.80;9.83;;;10.80;99.90;;;;;;5131808;27;20194;-77
2021/04/22 07:51:22;;;;;;;13.17;10.90;;;10.80;99.90;;;;;;5131662;27;20179;-78
2021/04/22 07:53:47;;;;;;;16.13;11.50;;;10.80;99.90;;;;;;5131504;27;20175;-77
2021/04/22 07:56:13;;;;;;;15.87;12.00;;;10.90;99.90;;;;;;5131856;27;20182;-77
2021/04/22 07:58:39;;;;;;;13.73;10.93;;;10.90;99.90;;;;;;5130334;28;20286;-78
2021/04/22 08:01:04;;;;;;;17.33;11.80;;;11.20;99.90;;;;;;5130495;28;20210;-78
2021/04/22 08:03:30;;;;;;;15.77;10.90;;;11.90;99.90;;;;;;5131177;27;20339;-77
2021/04/22 08:05:56;;;;;;;15.90;11.23;;;12.30;99.90;;;;;;5131060;27;20178;-77
2021/04/22 08:08:24;;;;;;;18.10;10.93;;;12.30;99.90;;;;;;5129963;28;20681;-77
2021/04/22 08:10:50;;;;;;;15.20;11.43;;;12.40;99.90;;;;;;5132066;27;20224;-77
2021/04/22 08:13:18;;;;;;;17.97;10.97;;;12.20;99.90;;;;;;5131282;27;20194;-77
2021/04/22 08:15:46;;;;;;;14.27;10.33;;;11.90;99.90;;;;;;5131981;27;20202;-77
2021/04/22 08:18:12;;;;;;;16.27;11.70;;;11.70;99.90;;;;;;5131307;27;20261;-77
2021/04/22 08:20:39;;;;;;;15.23;11.37;;;11.50;99.90;;;;;;5130785;28;20701;-77
2021/04/22 08:23:07;;;;;;;17.07;11.70;;;11.10;99.90;;;;;;5130896;27;20195;-77
2021/04/22 08:25:38;;;;;;;14.90;11.50;;;10.80;99.90;;;;;;5129475;28;20178;-77
2021/04/22 08:28:06;;;;;;;13.83;10.57;;;10.50;99.90;;;;;;5129794;28;20232;-77
2021/04/22 08:31:04;;;;;;;14.23;11.17;;;10.60;99.90;;;;;;5129553;28;20272;-77
2021/04/22 08:33:32;;;;;;;17.97;11.63;;;10.80;99.90;;;;;;5115759;28;20168;-77
2021/04/22 08:35:59;;;;;;;13.80;10.50;;;11.00;99.90;;;;;;5115455;28;20175;-78
2021/04/22 08:38:25;;;;;;;15.43;11.50;;;11.10;99.90;;;;;;5117152;28;20529;-77
2021/04/22 08:40:53;;;;;;;15.73;11.00;;;10.90;99.90;;;;;;5116806;28;20199;-77
2021/04/22 08:43:19;;;;;;;14.63;11.43;;;10.80;99.90;;;;;;5116771;28;20220;-77
2021/04/22 08:45:46;;;;;;;17.17;11.53;;;10.80;99.90;;;;;;5116716;28;20190;-77
2021/04/22 08:48:13;;;;;;;16.13;11.70;;;10.80;99.90;;;;;;5117592;28;20194;-78
2021/04/22 08:50:41;;;;;;;17.00;11.23;;;11.00;99.90;;;;;;5115788;28;20258;-77
2021/04/22 08:53:12;;;;;;;13.57;11.43;;;11.30;99.90;;;;;;5117239;28;20176;-77
2021/04/22 08:55:38;;;;;;;14.63;11.77;;;11.40;99.90;;;;;;5116702;28;20160;-78
2021/04/22 08:58:05;;;;;;;18.07;11.83;;;11.60;99.90;;;;;;5115437;28;20199;-77
2021/04/22 09:00:50;;;;;;;14.60;11.63;;;12.00;99.90;;;;;;5115113;28;20232;-77
2021/04/22 09:03:16;;;;;;;16.83;11.30;;;12.70;99.90;;;;;;5116531;28;20239;-77
2021/04/22 09:05:42;;;;;;;16.17;12.63;;;13.70;99.90;;;;;;5116845;28;20243;-77
2021/04/22 09:08:09;;;;;;;13.50;10.87;;;14.70;99.90;;;;;;5117049;28;20214;-78
2021/04/22 09:10:35;;;;;;;12.70;10.50;;;15.40;99.90;;;;;;5116524;28;20195;-78
2021/04/22 09:13:04;;;;;;;14.40;11.27;;;15.10;99.90;;;;;;5118131;28;20175;-77
2021/04/22 09:15:31;;;;;;;15.07;11.87;;;15.00;99.90;;;;;;5118379;28;20164;-78
2021/04/22 09:18:03;;;;;;;17.53;12.10;;;15.50;99.90;;;;;;5119008;28;20167;-78
2021/04/22 09:20:34;;;;;;;15.73;11.70;;;16.00;99.90;;;;;;5117383;28;20298;-77
2021/04/22 09:23:11;;;;;;;15.97;11.10;;;15.90;99.90;;;;;;5117338;28;20165;-78
2021/04/22 09:25:37;;;;;;;14.20;11.70;;;15.20;99.90;;;;;;5118834;28;20495;-78
2021/04/22 09:28:07;;;;;;;16.43;12.33;;;15.20;99.90;;;;;;5119134;28;20191;-78
2021/04/22 09:30:40;;;;;;;13.97;12.47;;;14.80;99.90;;;;;;5119118;28;20210;-77
2021/04/22 09:33:07;;;;;;;14.53;12.80;;;14.20;99.90;;;;;;5119814;28;20172;-77
2021/04/22 09:35:33;;;;;;;15.33;12.80;;;13.50;99.90;;;;;;5117455;28;20187;-77
2021/04/22 09:37:59;;;;;;;14.90;11.87;;;13.10;99.90;;;;;;5119105;28;20195;-79
2021/04/22 09:40:30;;;;;;;13.90;12.27;;;13.10;99.90;;;;;;5118542;28;20201;-77
2021/04/22 09:42:58;;;;;;;15.77;11.50;;;13.50;99.90;;;;;;5125446;28;20150;-78
2021/04/22 09:45:28;;;;;;;17.27;12.03;;;13.80;99.90;;;;;;5132611;28;20166;-78
2021/04/22 09:47:54;;;;;;;15.30;11.87;;;14.50;99.90;;;;;;5136496;28;20179;-78
2021/04/22 09:50:23;;;;;;;15.53;12.80;;;15.30;99.90;;;;;;5128855;28;20220;-78
2021/04/22 09:52:54;;;;;;;14.47;12.40;;;15.50;99.90;;;;;;5117100;28;20545;-78
2021/04/22 09:55:25;;;;;;;17.43;12.80;;;15.10;99.90;;;;;;5116178;28;20593;-78
2021/04/22 09:57:52;;;;;;;14.37;12.60;;;14.70;99.90;;;;;;5115727;28;20230;-78
2021/04/22 10:00:28;;;;;;;15.33;12.70;;;14.10;99.90;;;;;;5115091;28;20748;-78
2021/04/22 10:03:02;;;;;;;17.37;12.87;;;13.60;99.90;;;;;;5116184;28;20216;-78
2021/04/22 10:05:35;;;;;;;15.73;12.87;;;13.20;99.90;;;;;;5116448;28;20164;-78
2021/04/22 10:08:09;;;;;;;16.27;13.37;;;13.00;99.90;;;;;;5115756;28;20191;-77
2021/04/22 10:10:36;;;;;;;14.87;12.97;;;13.10;99.90;;;;;;5115457;28;20171;-78
2021/04/22 10:13:11;;;;;;;17.13;13.40;;;13.00;99.90;;;;;;5115553;28;20182;-78
2021/04/22 10:15:47;;;;;;;18.00;13.60;;;12.90;99.90;;;;;;5116027;28;20159;-78
2021/04/22 10:18:13;;;;;;;18.50;14.37;;;12.50;99.90;;;;;;5115526;28;20191;-78
2021/04/22 10:20:40;;;;;;;20.47;15.60;;;12.00;99.90;;;;;;5115895;28;20203;-78
2021/04/22 10:23:08;;;;;;;16.13;14.13;;;11.60;99.90;;;;;;5116120;28;20170;-78
2021/04/22 10:25:36;;;;;;;17.33;13.63;;;11.10;99.90;;;;;;5114884;28;20251;-77
2021/04/22 10:28:05;;;;;;;16.23;13.73;;;10.60;99.90;;;;;;5115187;28;20183;-77
2021/04/22 10:30:32;;;;;;;18.20;14.07;;;10.10;99.90;;;;;;5057248;27;20274;-77
2021/04/22 10:32:58;;;;;;;19.60;13.63;;;10.00;99.90;;;;;;5054503;28;20181;-78
2021/04/22 10:35:26;;;;;;;17.70;13.20;;;10.10;99.90;;;;;;5054338;28;20630;-77
2021/04/22 10:37:54;;;;;;;17.73;13.80;;;10.40;99.90;;;;;;5054498;28;20639;-78
2021/04/22 10:40:23;;;;;;;15.00;11.40;;;10.80;99.90;;;;;;5054408;28;20196;-78
2021/04/22 10:42:50;;;;;;;14.07;11.27;;;11.30;99.90;;;;;;5053339;28;20178;-77
2021/04/22 10:45:17;;;;;;;14.40;11.47;;;11.60;99.90;;;;;;5054240;28;20169;-78
2021/04/22 10:47:43;;;;;;;17.93;12.43;;;11.80;99.90;;;;;;5054530;28;20170;-78
2021/04/22 10:50:12;;;;;;;16.40;12.50;;;12.20;99.90;;;;;;5055071;28;20303;-78
2021/04/22 10:52:49;;;;;;;13.77;11.70;;;12.30;99.90;;;;;;5055264;28;20257;-78
2021/04/22 10:55:21;;;;;;;20.67;12.30;;;12.10;99.90;;;;;;5055065;28;20570;-78
2021/04/22 10:57:48;;;;;;;15.87;13.20;;;11.90;99.90;;;;;;5054203;28;20216;-78
2021/04/22 11:00:15;;;;;;;15.70;13.37;;;11.60;99.90;;;;;;5054694;28;20193;-78
2021/04/22 11:02:47;;;;;;;18.73;13.67;;;11.30;99.90;;;;;;5054582;28;20205;-78
2021/04/22 11:05:21;;;;;;;19.27;14.47;;;11.20;99.90;;;;;;5054237;28;20169;-78
2021/04/22 11:08:07;;;;;;;22.27;15.27;;;11.20;99.90;;;;;;5054172;28;20193;-78
2021/04/22 11:10:45;;;;;;;17.67;14.17;;;11.30;99.90;;;;;;5053261;28;20162;-78
2021/04/22 11:13:18;;;;;;;17.50;14.03;;;11.50;99.90;;;;;;5054199;28;20558;-78
2021/04/22 11:16:04;;;;;;;21.53;15.03;;;11.80;99.90;;;;;;5053843;28;20227;-78
2021/04/22 11:18:43;;;;;;;19.60;15.27;;;12.00;99.90;;;;;;5053581;28;20205;-78
2021/04/22 11:21:23;;;;;;;19.57;16.10;;;12.30;99.90;;;;;;5048467;28;20233;-78
2021/04/22 11:23:52;;;;;;;22.07;15.50;;;13.10;99.90;;;;;;5034757;28;20165;-77
2021/04/22 11:26:21;;;;;;;18.73;14.33;;;14.40;99.90;;;;;;5046006;28;20201;-77
2021/04/22 11:28:47;;;;;;;19.63;14.80;;;15.20;99.90;;;;;;5043916;28;20687;-77
2021/04/22 11:31:20;;;;;;;17.90;14.17;;;15.30;99.90;;;;;;5033096;28;20535;-78
2021/04/22 11:33:46;;;;;;;19.53;15.67;;;14.60;99.90;;;;;;5033147;28;20166;-77
2021/04/22 11:36:22;;;;;;;17.40;14.27;;;14.20;99.90;;;;;;5031542;28;20175;-78
2021/04/22 11:38:59;;;;;;;19.03;13.90;;;14.20;99.90;;;;;;5032967;28;20252;-78
2021/04/22 11:41:31;;;;;;;16.70;14.30;;;14.00;99.90;;;;;;5031484;28;20599;-77
2021/04/22 11:44:07;;;;;;;17.80;14.67;;;14.00;99.90;;;;;;5031504;28;20190;-77
2021/04/22 11:46:44;;;;;;;22.23;16.17;;;14.60;99.90;;;;;;5032927;28;20161;-77
2021/04/22 11:49:26;;;;;;;19.17;16.77;;;15.20;99.90;;;;;;5031741;28;20243;-77
2021/04/22 11:51:52;;;;;;;20.47;15.40;;;15.80;99.90;;;;;;5032994;28;20632;-77
2021/04/22 11:54:21;;;;;;;18.73;15.77;;;16.40;99.90;;;;;;5032908;28;20170;-78
2021/04/22 11:56:55;;;;;;;19.67;15.63;;;16.30;99.90;;;;;;5031903;28;20180;-77
2021/04/22 11:59:21;;;;;;;19.57;15.80;;;15.90;99.90;;;;;;5031593;28;20289;-78
2021/04/22 12:01:56;;;;;;;17.47;15.37;;;15.10;99.90;;;;;;5031940;28;20202;-77
2021/04/22 12:04:22;;;;;;;19.00;15.77;;;14.40;99.90;;;;;;5032533;28;20156;-78
2021/04/22 12:06:52;;;;;;;18.13;15.47;;;13.90;99.90;;;;;;5033058;28;20224;-77
2021/04/22 12:09:32;;;;;;;25.27;15.53;;;13.50;99.90;;;;;;5035162;28;20194;-77
2021/04/22 12:12:21;;;;;;;20.03;15.53;;;13.30;99.90;;;;;;5036518;28;20651;-78
2021/04/22 12:14:52;;;;;;;20.10;16.50;;;13.20;99.90;;;;;;5035613;28;20210;-77
2021/04/22 12:17:23;;;;;;;19.60;15.40;;;13.00;99.90;;;;;;5035380;28;20194;-78
2021/04/22 12:19:51;;;;;;;21.13;16.37;;;13.00;99.90;;;;;;5034731;28;20563;-77
2021/04/22 12:22:32;;;;;;;18.10;16.17;;;13.00;99.90;;;;;;5036133;28;20566;-77
2021/04/22 12:25:00;;;;;;;19.53;16.20;;;13.60;99.90;;;;;;5053061;28;20260;-77
2021/04/22 12:27:29;;;;;;;21.23;15.57;;;15.30;99.90;;;;;;5056140;28;20184;-77
2021/04/22 12:29:55;;;;;;;20.60;16.63;;;16.10;99.90;;;;;;5056114;28;20181;-78
2021/04/22 12:32:21;;;;;;;19.53;16.00;;;17.50;99.90;;;;;;5056450;28;20241;-79
2021/04/22 12:34:47;;;;;;;21.37;15.83;;;18.00;98.70;;;;;;5058733;28;20207;-78
2021/04/22 12:37:13;;;;;;;22.63;16.50;;;18.60;95.10;;;;;;5056485;28;20588;-79
2021/04/22 12:39:57;;;;;;;20.20;16.80;;;19.10;91.40;;;;;;5057288;28;20203;-78
2021/04/22 12:42:27;;;;;;;20.07;17.77;;;18.20;92.80;;;;;;5058893;28;20198;-78